Time;durP1;ratioP1;P1;durP2;ratioP2;P2;SDS_P1;SDS_P2;PMS_P1;PMS_P2;Temp;Humidity;BMP_temperature;BMP_pressure;BME280_temperature;BME280_humidity;BME280_pressure;Samples;Min_cycle;Max_cycle;Signal;HPM_P1;HPM_P2
2022/12/04 00:00:35;;;;;;;;;56.00;44.00;;;;;6.34;65.60;99455.13;6311456;27;96339;-67
2022/12/04 00:03:39;;;;;;;;;60.20;46.00;;;;;6.42;65.64;99455.88;6316232;27;96220;-67
2022/12/04 00:06:43;;;;;;;;;55.80;45.20;;;;;6.52;65.22;99464.47;6316331;27;96801;-68
2022/12/04 00:09:47;;;;;;;;;57.20;45.80;;;;;6.63;65.05;99463.22;6288198;27;96817;-67
2022/12/04 00:12:50;;;;;;;;;51.20;42.00;;;;;6.57;64.90;99460.41;6288268;27;98184;-67
2022/12/04 00:15:53;;;;;;;;;55.50;44.50;;;;;6.58;64.91;99454.06;6300616;27;96508;-66
2022/12/04 00:18:58;;;;;;;;;53.00;42.20;;;;;6.36;65.04;99439.69;6301483;27;96499;-67
2022/12/04 00:22:03;;;;;;;;;58.00;46.50;;;;;6.51;65.58;99453.94;6291541;27;97346;-67
2022/12/04 00:25:07;;;;;;;;;58.40;46.20;;;;;6.48;65.52;99455.16;6294053;27;96379;-67
2022/12/04 00:28:10;;;;;;;;;54.40;41.80;;;;;6.40;65.34;99449.84;6298699;27;96393;-67
2022/12/04 00:31:15;;;;;;;;;61.50;47.50;;;;;6.51;65.61;99460.13;6300982;27;97094;-67
2022/12/04 00:34:19;;;;;;;;;57.40;45.00;;;;;6.54;65.69;99456.28;6280859;27;96358;-67
2022/12/04 00:37:24;;;;;;;;;52.50;42.50;;;;;6.49;65.55;99453.31;6285536;27;99117;-67
2022/12/04 00:40:27;;;;;;;;;55.60;43.80;;;;;6.35;65.83;99440.72;6288152;27;96441;-66
2022/12/04 00:43:31;;;;;;;;;56.20;46.00;;;;;6.46;65.91;99459.84;6288154;27;96553;-66
2022/12/04 00:46:35;;;;;;;;;56.20;44.00;;;;;6.38;65.55;99449.22;6288241;27;96748;-67
2022/12/04 00:49:38;;;;;;;;;49.80;40.60;;;;;6.33;65.78;99456.13;6291485;27;96335;-67
2022/12/04 00:52:43;;;;;;;;;54.40;42.60;;;;;6.29;66.34;99442.28;6291263;27;96534;-67
2022/12/04 00:55:46;;;;;;;;;55.40;43.20;;;;;6.29;66.54;99438.75;6287516;27;96456;-66
2022/12/04 00:58:52;;;;;;;;;54.20;44.00;;;;;6.45;66.23;99438.63;6287280;27;96424;-67
2022/12/04 01:01:56;;;;;;;;;53.00;42.60;;;;;6.31;66.51;99439.38;6288795;27;96313;-66
2022/12/04 01:05:01;;;;;;;;;53.25;43.75;;;;;6.39;66.26;99434.81;6286774;27;96323;-66
2022/12/04 01:08:07;;;;;;;;;58.20;44.20;;;;;6.28;66.78;99427.22;6288787;27;96415;-66
2022/12/04 01:11:10;;;;;;;;;52.20;42.80;;;;;6.28;66.93;99431.72;6289605;27;96781;-67
2022/12/04 01:14:14;;;;;;;;;58.75;46.25;;;;;6.29;66.90;99412.81;6256207;27;97005;-67
2022/12/04 01:17:17;;;;;;;;;53.80;42.40;;;;;6.22;66.97;99411.84;6263511;27;96487;-67
2022/12/04 01:20:20;;;;;;;;;52.40;43.40;;;;;6.32;66.98;99403.56;6280634;27;97336;-66
2022/12/04 01:23:25;;;;;;;;;52.60;42.00;;;;;6.38;66.85;99410.88;6287498;27;96332;-67
2022/12/04 01:26:29;;;;;;;;;47.50;38.50;;;;;6.35;66.66;99414.75;6288537;27;96426;-67
2022/12/04 01:29:32;;;;;;;;;55.00;43.40;;;;;6.16;67.13;99411.78;6288142;27;96547;-67
2022/12/04 01:32:35;;;;;;;;;52.00;42.25;;;;;6.13;67.73;99404.06;6287218;27;96537;-67
2022/12/04 01:35:39;;;;;;;;;46.20;35.40;;;;;6.23;67.42;99397.47;6288606;27;96185;-67
2022/12/04 01:38:44;;;;;;;;;50.25;39.50;;;;;6.20;67.66;99394.31;6288080;27;98078;-67
2022/12/04 01:41:48;;;;;;;;;52.20;41.80;;;;;6.22;67.66;99390.44;6288747;27;97390;-66
2022/12/04 01:45:33;;;;;;;;;47.00;38.80;;;;;6.00;68.20;99402.03;6287051;27;96274;-66
2022/12/04 01:48:42;;;;;;;;;49.00;40.60;;;;;6.01;68.46;99388.44;6286520;27;96589;-67
2022/12/04 01:51:49;;;;;;;;;53.00;41.00;;;;;5.95;68.97;99388.34;6287388;27;96292;-67
2022/12/04 01:54:59;;;;;;;;;59.00;46.50;;;;;6.00;68.85;99389.47;6288375;27;96100;-67
2022/12/04 01:58:04;;;;;;;;;49.00;40.00;;;;;6.05;68.47;99378.22;6288152;27;96322;-67
2022/12/04 02:01:07;;;;;;;;;52.00;41.25;;;;;6.06;68.88;99387.91;6286609;27;96465;-66
2022/12/04 02:04:11;;;;;;;;;49.75;40.75;;;;;6.00;68.60;99369.91;6287518;27;97562;-66
2022/12/04 02:07:15;;;;;;;;;48.75;39.50;;;;;6.21;68.37;99394.13;6286836;27;96966;-66
2022/12/04 02:10:23;;;;;;;;;48.20;38.40;;;;;6.24;68.21;99387.59;6285870;27;96778;-66
2022/12/04 02:13:33;;;;;;;;;48.00;38.00;;;;;6.37;67.94;99388.63;6286971;27;96313;-67
2022/12/04 02:16:45;;;;;;;;;46.20;38.20;;;;;6.50;67.91;99391.50;6287791;27;97468;-66
2022/12/04 02:20:04;;;;;;;;;49.00;39.00;;;;;6.50;67.51;99388.81;6287990;27;96377;-66
2022/12/04 02:23:45;;;;;;;;;47.00;39.00;;;;;6.50;67.13;99387.97;6286571;27;96353;-67
2022/12/04 02:26:56;;;;;;;;;49.00;40.00;;;;;6.52;67.08;99388.63;6284407;27;96296;-67
2022/12/04 02:30:05;;;;;;;;;49.40;40.40;;;;;6.57;66.93;99375.53;6302722;27;96573;-67
2022/12/04 02:33:18;;;;;;;;;42.40;34.80;;;;;6.69;66.82;99387.47;6287526;27;96670;-67
2022/12/04 02:36:24;;;;;;;;;45.67;37.67;;;;;6.47;66.24;99369.59;6287768;27;96326;-66
2022/12/04 02:39:35;;;;;;;;;46.60;38.60;;;;;6.41;67.23;99394.44;6287793;27;96375;-67
2022/12/04 02:42:42;;;;;;;;;35.40;32.00;;;;;6.27;67.60;99389.88;6287350;27;96431;-67
2022/12/04 02:45:55;;;;;;;;;41.40;35.40;;;;;6.31;67.91;99383.16;6287439;27;96954;-68
2022/12/04 02:49:04;;;;;;;;;47.75;41.00;;;;;6.40;67.86;99388.25;6287494;27;96929;-67
2022/12/04 02:52:11;;;;;;;;;44.40;36.40;;;;;6.42;67.82;99394.25;6287104;27;96792;-66
2022/12/04 02:55:21;;;;;;;;;48.00;38.00;;;;;6.49;67.77;99391.69;6285570;27;96568;-66
2022/12/04 02:58:31;;;;;;;;;46.75;37.00;;;;;6.51;67.92;99395.00;6284471;27;96215;-66
2022/12/04 03:01:42;;;;;;;;;47.00;39.00;;;;;6.44;68.05;99399.44;6287433;27;96548;-67
2022/12/04 03:04:49;;;;;;;;;46.20;37.60;;;;;6.55;67.79;99393.63;6302960;27;96965;-67
2022/12/04 03:07:56;;;;;;;;;44.80;36.80;;;;;6.61;67.85;99400.94;6286635;27;96478;-66
2022/12/04 03:11:01;;;;;;;;;49.40;40.40;;;;;6.66;67.73;99395.00;6285878;27;98324;-67
2022/12/04 03:14:12;;;;;;;;;47.40;39.40;;;;;6.65;67.72;99385.31;6286830;27;96794;-67
2022/12/04 03:17:23;;;;;;;;;50.80;39.00;;;;;6.70;67.71;99398.97;6286691;27;96662;-67
2022/12/04 03:20:27;;;;;;;;;47.50;40.00;;;;;6.70;67.62;99393.63;6287135;27;96574;-66
2022/12/04 03:23:39;;;;;;;;;47.00;37.00;;;;;6.69;67.82;99392.81;6286563;27;98332;-66
2022/12/04 03:26:46;;;;;;;;;45.00;36.00;;;;;6.80;67.62;99386.97;6271721;27;96913;-68
2022/12/04 03:29:55;;;;;;;;;47.25;38.00;;;;;6.90;67.30;99394.72;6284776;27;96568;-67
2022/12/04 03:33:07;;;;;;;;;45.00;36.00;;;;;6.97;66.98;99398.34;6286207;27;97023;-67
2022/12/04 03:36:18;;;;;;;;;46.80;37.80;;;;;6.99;66.81;99390.94;6286701;27;96280;-67
2022/12/04 03:39:27;;;;;;;;;41.60;34.60;;;;;7.03;66.93;99408.34;6286356;27;96232;-67
2022/12/04 03:42:39;;;;;;;;;46.20;36.80;;;;;6.92;67.03;99395.41;6282757;27;96654;-66
2022/12/04 03:45:48;;;;;;;;;49.40;39.40;;;;;7.01;66.97;99393.44;6286304;27;96297;-66
2022/12/04 03:48:59;;;;;;;;;47.00;38.00;;;;;7.01;66.68;99396.97;6284246;27;96677;-67
2022/12/04 03:52:07;;;;;;;;;47.20;39.00;;;;;6.99;66.87;99400.84;6286308;27;97680;-67
2022/12/04 03:55:15;;;;;;;;;48.40;39.40;;;;;6.93;67.13;99383.66;6286292;27;96961;-68
2022/12/04 03:58:25;;;;;;;;;42.80;36.00;;;;;6.93;67.04;99383.66;6283493;27;96316;-67
2022/12/04 04:01:35;;;;;;;;;47.00;37.40;;;;;6.83;67.24;99372.38;6277260;27;96317;-67
2022/12/04 04:04:42;;;;;;;;;41.25;34.25;;;;;7.00;67.25;99397.13;6295950;27;96326;-67
2022/12/04 04:07:48;;;;;;;;;44.60;37.00;;;;;6.93;66.94;99384.50;6286379;27;96541;-67
2022/12/04 04:10:55;;;;;;;;;39.40;35.20;;;;;6.93;67.51;99394.38;6290973;27;96805;-67
2022/12/04 04:24:26;;;;;;;;;40.40;34.40;;;;;6.99;67.30;99398.97;6307657;27;96326;-66
2022/12/04 04:27:30;;;;;;;;;44.60;36.40;;;;;6.92;67.54;99395.41;6301610;27;96941;-67
2022/12/04 04:30:35;;;;;;;;;38.25;33.25;;;;;6.83;67.43;99394.66;6301235;27;96401;-66
2022/12/04 04:33:48;;;;;;;;;33.75;31.75;;;;;6.76;67.60;99398.25;6288079;27;96689;-67
2022/12/04 04:37:04;;;;;;;;;41.00;34.00;;;;;6.79;67.66;99397.91;6290143;27;96214;-67
2022/12/04 04:40:18;;;;;;;;;35.00;32.25;;;;;6.66;67.81;99389.66;6289615;27;96559;-65
2022/12/04 04:43:25;;;;;;;;;37.75;31.25;;;;;6.77;67.94;99381.16;6301598;27;98275;-67
2022/12/04 04:46:33;;;;;;;;;34.80;32.00;;;;;6.54;68.49;99386.63;6289995;27;96274;-67
2022/12/04 04:49:40;;;;;;;;;34.00;31.50;;;;;6.62;68.75;99378.50;6301191;27;96455;-67
2022/12/04 04:52:48;;;;;;;;;36.50;33.00;;;;;6.68;68.35;99366.19;6315222;27;96295;-67
2022/12/04 04:55:52;;;;;;;;;37.00;32.00;;;;;6.64;68.54;99376.47;6292990;27;97570;-67
2022/12/04 04:58:55;;;;;;;;;38.25;33.00;;;;;6.66;68.60;99362.88;6268871;27;96325;-68
2022/12/04 05:01:58;;;;;;;;;35.80;31.80;;;;;6.71;68.27;99377.38;6299249;27;96558;-67
2022/12/04 05:05:02;;;;;;;;;35.80;30.60;;;;;6.60;68.69;99383.19;6286468;27;96587;-67
2022/12/04 05:08:07;;;;;;;;;29.40;27.80;;;;;6.60;68.90;99395.78;6286427;27;97027;-67
2022/12/04 05:11:12;;;;;;;;;31.67;30.00;;;;;6.60;68.79;99390.41;6288434;27;96319;-68
2022/12/04 05:14:16;;;;;;;;;31.40;30.00;;;;;6.64;68.89;99381.00;6288133;27;96445;-67
2022/12/04 05:17:19;;;;;;;;;32.80;29.80;;;;;6.75;68.56;99386.69;6277232;27;96514;-67
2022/12/04 05:20:23;;;;;;;;;38.60;33.00;;;;;6.73;68.42;99377.19;6288491;27;97466;-68
2022/12/04 05:23:27;;;;;;;;;31.00;29.00;;;;;6.80;68.60;99384.28;6287302;27;96366;-67
2022/12/04 05:26:31;;;;;;;;;34.20;31.40;;;;;6.87;68.16;99384.41;6284820;27;97075;-66
2022/12/04 05:29:34;;;;;;;;;32.20;30.00;;;;;6.92;67.78;99385.50;6284785;27;97099;-67
2022/12/04 05:32:38;;;;;;;;;30.25;25.75;;;;;6.78;67.92;99380.16;6282714;27;96687;-67
2022/12/04 05:35:41;;;;;;;;;34.50;31.00;;;;;6.84;67.92;99390.94;6288003;27;96462;-67
2022/12/04 05:38:46;;;;;;;;;42.20;33.20;;;;;6.85;67.92;99403.34;6292860;27;96308;-67
2022/12/04 05:41:49;;;;;;;;;45.00;35.40;;;;;6.86;67.85;99391.59;6292207;27;96289;-67
2022/12/04 05:44:53;;;;;;;;;35.60;32.00;;;;;6.89;67.72;99399.25;6295797;27;97175;-68
2022/12/04 05:47:56;;;;;;;;;32.40;29.40;;;;;6.92;67.81;99396.22;6288757;27;96620;-68
2022/12/04 05:51:00;;;;;;;;;32.50;29.50;;;;;6.54;68.30;99370.56;6292818;27;96751;-67
2022/12/04 05:54:05;;;;;;;;;32.00;28.75;;;;;6.76;68.32;99396.41;6304035;27;96268;-68
2022/12/04 05:57:08;;;;;;;;;34.00;30.00;;;;;6.85;68.26;99400.66;6288698;27;96342;-68
2022/12/04 06:00:13;;;;;;;;;35.60;31.60;;;;;6.94;67.82;99401.38;6283067;27;97281;-67
2022/12/04 06:03:17;;;;;;;;;28.80;25.40;;;;;6.95;67.59;99401.19;6286421;27;96456;-66
2022/12/04 06:06:22;;;;;;;;;35.00;31.20;;;;;7.01;67.42;99401.47;6286158;27;96906;-67
2022/12/04 06:09:26;;;;;;;;;32.50;29.00;;;;;7.06;67.31;99399.06;6285846;27;96431;-67
2022/12/04 06:12:30;;;;;;;;;32.50;30.25;;;;;7.13;66.65;99402.69;6286055;27;96201;-67
2022/12/04 06:15:37;;;;;;;;;38.60;32.00;;;;;7.15;66.70;99411.34;6284152;27;98516;-67
2022/12/04 06:18:40;;;;;;;;;35.80;32.00;;;;;7.12;66.61;99403.69;6287281;27;96739;-67
2022/12/04 06:21:46;;;;;;;;;30.25;25.75;;;;;6.99;66.72;99409.69;6288039;27;96545;-67
2022/12/04 06:24:51;;;;;;;;;29.60;28.60;;;;;7.07;66.38;99401.56;6285962;27;97035;-67
2022/12/04 06:27:54;;;;;;;;;33.40;30.00;;;;;7.00;66.78;99397.97;6287312;27;96245;-67
2022/12/04 06:31:01;;;;;;;;;35.50;30.25;;;;;7.06;66.68;99413.31;6290619;27;96210;-66
2022/12/04 06:34:06;;;;;;;;;32.00;30.00;;;;;6.99;66.67;99411.56;6284083;27;96414;-67
2022/12/04 06:37:09;;;;;;;;;30.67;29.33;;;;;7.06;66.77;99409.78;6287509;27;96331;-67
2022/12/04 06:40:14;;;;;;;;;27.00;25.20;;;;;6.99;66.48;99415.06;6287551;27;96773;-67
2022/12/04 06:43:17;;;;;;;;;29.80;28.40;;;;;6.85;66.99;99408.69;6289479;27;97046;-67
2022/12/04 06:46:23;;;;;;;;;36.00;30.00;;;;;6.96;66.97;99405.56;6297033;27;96537;-66
2022/12/04 06:49:27;;;;;;;;;24.60;24.20;;;;;6.89;67.08;99403.81;6282328;27;97416;-66
2022/12/04 06:52:32;;;;;;;;;35.80;30.00;;;;;6.95;66.86;99397.69;6276095;27;96843;-65
2022/12/04 06:55:37;;;;;;;;;34.00;30.20;;;;;6.94;66.90;99401.38;6275430;27;96433;-67
2022/12/04 06:58:41;;;;;;;;;31.33;29.33;;;;;6.99;66.90;99403.53;6285251;27;96358;-67
2022/12/04 07:01:44;;;;;;;;;32.50;30.00;;;;;6.95;67.14;99393.16;6270765;27;96606;-67
2022/12/04 07:04:47;;;;;;;;;28.00;25.75;;;;;7.08;66.82;99391.69;6274386;27;97548;-67
2022/12/04 07:07:51;;;;;;;;;34.80;29.20;;;;;7.09;66.71;99396.84;6286213;27;96618;-67
2022/12/04 07:10:55;;;;;;;;;31.00;29.00;;;;;7.01;66.69;99390.75;6265819;27;96335;-68
2022/12/04 07:14:01;;;;;;;;;32.40;30.00;;;;;7.03;66.77;99396.78;6261303;27;96320;-68
2022/12/04 07:17:05;;;;;;;;;32.20;30.00;;;;;6.99;66.84;99401.66;6283505;27;96386;-67
2022/12/04 07:20:10;;;;;;;;;35.00;31.00;;;;;7.05;66.92;99397.41;6281297;27;97259;-67
2022/12/04 07:23:13;;;;;;;;;28.20;27.20;;;;;7.10;66.54;99401.19;6277064;27;96875;-67
2022/12/04 07:26:19;;;;;;;;;30.00;29.00;;;;;7.11;66.41;99407.38;6296355;27;96372;-67
2022/12/04 07:29:23;;;;;;;;;30.50;28.50;;;;;7.23;66.04;99400.53;6286498;27;96302;-67
2022/12/04 07:32:26;;;;;;;;;26.50;24.25;;;;;7.26;65.79;99400.16;6283651;27;96528;-67
2022/12/04 07:35:29;;;;;;;;;38.00;32.00;;;;;7.18;65.92;99394.91;6280833;27;96844;-66
2022/12/04 07:38:33;;;;;;;;;29.60;28.60;;;;;7.22;66.00;99401.56;6285601;27;96393;-67
2022/12/04 07:41:38;;;;;;;;;29.20;28.40;;;;;7.22;66.11;99394.34;6282413;27;96642;-67
2022/12/04 07:44:43;;;;;;;;;29.25;25.25;;;;;7.11;65.94;99384.09;6286697;27;96234;-67
2022/12/04 07:47:46;;;;;;;;;34.80;29.40;;;;;7.24;65.81;99386.09;6286832;27;97185;-67
2022/12/04 07:50:50;;;;;;;;;33.80;31.40;;;;;7.24;66.09;99380.72;6287686;27;97225;-67
2022/12/04 07:53:56;;;;;;;;;34.40;28.00;;;;;7.34;65.51;99384.78;6285988;27;96328;-67
2022/12/04 07:57:06;;;;;;;;;32.20;30.20;;;;;7.39;65.26;99378.84;6289584;27;96372;-67
2022/12/04 08:00:11;;;;;;;;;35.33;32.00;;;;;7.43;65.50;99376.63;6284416;27;96968;-68
2022/12/04 08:03:15;;;;;;;;;32.40;30.00;;;;;7.48;65.17;99375.03;6289215;27;97605;-68
2022/12/04 08:06:19;;;;;;;;;30.00;28.00;;;;;7.52;64.97;99378.19;6269306;27;96633;-68
2022/12/04 08:09:22;;;;;;;;;32.00;29.75;;;;;7.42;64.78;99367.75;6287505;27;96548;-67
2022/12/04 08:12:28;;;;;;;;;30.20;27.60;;;;;7.57;64.90;99383.81;6283907;27;97503;-68
2022/12/04 08:15:31;;;;;;;;;28.00;25.00;;;;;7.57;64.71;99373.06;6287305;27;96374;-67
2022/12/04 08:18:35;;;;;;;;;33.00;29.33;;;;;7.67;64.57;99382.44;6284406;27;97036;-68
2022/12/04 08:21:38;;;;;;;;;32.00;30.00;;;;;7.69;64.61;99385.78;6292934;27;97005;-67
2022/12/04 08:24:41;;;;;;;;;35.25;30.75;;;;;7.64;64.77;99390.06;6286236;27;97453;-66
2022/12/04 08:27:46;;;;;;;;;33.00;28.00;;;;;7.58;64.94;99399.69;6288932;27;96854;-66
2022/12/04 08:30:50;;;;;;;;;36.80;32.00;;;;;7.58;64.76;99405.06;6288265;27;96913;-66
2022/12/04 08:33:55;;;;;;;;;29.80;26.80;;;;;7.58;64.71;99405.06;6292640;27;96573;-65
2022/12/04 08:36:59;;;;;;;;;28.50;25.50;;;;;7.65;64.66;99410.50;6290544;27;97013;-67
2022/12/04 08:40:03;;;;;;;;;34.60;30.40;;;;;7.56;64.69;99400.91;6288016;27;96322;-67
2022/12/04 08:43:07;;;;;;;;;35.00;31.00;;;;;7.69;64.57;99401.88;6286200;27;96292;-66
2022/12/04 08:46:12;;;;;;;;;30.60;27.20;;;;;7.84;64.19;99402.66;6284304;27;96768;-66
2022/12/04 08:49:16;;;;;;;;;29.20;27.40;;;;;7.65;64.08;99397.09;6287069;27;96252;-67
2022/12/04 08:52:19;;;;;;;;;28.00;26.00;;;;;7.54;64.59;99409.16;6286818;27;96453;-67
2022/12/04 08:55:22;;;;;;;;;38.60;33.80;;;;;7.39;65.97;99411.88;6286566;27;97206;-66
2022/12/04 08:58:27;;;;;;;;;27.50;23.50;;;;;7.33;65.44;99419.84;6278991;27;96421;-68
2022/12/04 09:01:31;;;;;;;;;37.33;33.00;;;;;7.47;65.64;99402.91;6285604;27;96505;-68
2022/12/04 09:04:34;;;;;;;;;33.00;30.00;;;;;7.56;65.73;99408.97;6284282;27;96528;-69
2022/12/04 09:07:38;;;;;;;;;38.60;32.40;;;;;7.76;65.08;99410.00;6286409;27;96753;-68
2022/12/04 09:10:42;;;;;;;;;34.60;31.80;;;;;7.76;64.51;99401.97;6284749;27;96658;-69
2022/12/04 09:13:47;;;;;;;;;31.25;30.00;;;;;7.85;64.38;99403.50;6284733;27;96756;-68
2022/12/04 09:16:51;;;;;;;;;37.00;30.00;;;;;7.94;64.24;99405.03;6286235;27;96495;-69
2022/12/04 09:19:54;;;;;;;;;33.25;30.00;;;;;7.97;64.10;99409.16;6285745;27;97197;-68
2022/12/04 09:23:04;;;;;;;;;37.40;33.20;;;;;8.10;63.92;99420.03;6285582;27;96691;-69
2022/12/04 09:26:18;;;;;;;;;34.50;30.25;;;;;8.18;63.71;99401.94;6289932;27;96606;-68
2022/12/04 09:29:24;;;;;;;;;27.20;26.00;;;;;8.11;63.31;99411.78;6281685;27;96792;-68
2022/12/04 09:32:28;;;;;;;;;38.40;32.00;;;;;8.06;63.85;99410.72;6284331;27;97223;-68
2022/12/04 09:35:32;;;;;;;;;33.33;29.00;;;;;8.17;63.48;99400.28;6286821;27;96432;-69
2022/12/04 09:38:36;;;;;;;;;30.00;28.00;;;;;8.26;63.37;99395.59;6285568;27;96277;-68
2022/12/04 09:42:10;;;;;;;;;34.00;30.00;;;;;8.26;63.36;99392.91;6301090;27;97106;-69
2022/12/04 09:45:18;;;;;;;;;34.20;30.80;;;;;8.29;63.29;99384.47;6287309;27;96943;-69
2022/12/04 09:48:28;;;;;;;;;33.00;30.00;;;;;8.28;63.15;99386.31;6288252;27;96212;-68
2022/12/04 09:51:34;;;;;;;;;36.00;32.00;;;;;8.26;63.25;99385.66;6284229;27;96455;-69
2022/12/04 09:54:41;;;;;;;;;39.50;33.75;;;;;8.24;63.64;99385.06;6286881;27;96376;-68
2022/12/04 09:57:48;;;;;;;;;39.40;32.20;;;;;8.04;63.81;99383.22;6289012;27;97186;-69
2022/12/04 10:00:54;;;;;;;;;34.40;32.00;;;;;8.07;64.11;99388.19;6284201;27;97669;-68
2022/12/04 10:03:57;;;;;;;;;39.00;32.20;;;;;8.23;63.92;99367.25;6279879;27;97882;-68
2022/12/04 10:07:15;;;;;;;;;39.60;33.60;;;;;8.25;63.75;99364.41;6281386;27;96461;-70
2022/12/04 10:10:30;;;;;;;;;43.00;35.00;;;;;8.39;63.92;99368.03;6282640;27;98477;-68
2022/12/04 10:13:53;;;;;;;;;35.80;30.20;;;;;8.41;63.74;99348.00;6293230;27;96702;-69
2022/12/04 10:17:20;;;;;;;;;39.40;34.00;;;;;8.53;64.24;99341.06;6284656;27;96416;-69
2022/12/04 10:20:46;;;;;;;;;41.40;34.60;;;;;8.55;63.58;99328.22;6283611;27;96285;-68
2022/12/04 10:24:01;;;;;;;;;41.00;35.40;;;;;8.69;63.18;99332.69;6282986;27;96574;-69
2022/12/04 10:27:11;;;;;;;;;32.80;30.20;;;;;8.75;63.05;99330.22;6286140;27;96361;-68
2022/12/04 10:30:19;;;;;;;;;37.80;33.20;;;;;8.79;62.81;99321.56;6288210;27;96695;-69
2022/12/04 10:33:30;;;;;;;;;39.00;34.00;;;;;8.81;62.70;99318.66;6281166;27;96557;-69
2022/12/04 10:36:35;;;;;;;;;36.00;31.50;;;;;8.76;62.19;99327.31;6282131;27;98978;-70
2022/12/04 10:39:45;;;;;;;;;37.20;32.00;;;;;8.80;63.32;99319.69;6284537;27;96958;-70
2022/12/04 10:42:55;;;;;;;;;35.00;31.00;;;;;8.78;63.13;99314.53;6282475;27;97020;-68
2022/12/04 10:45:59;;;;;;;;;34.60;31.60;;;;;8.85;63.23;99311.84;6285261;27;97093;-68
2022/12/04 10:49:08;;;;;;;;;33.80;31.00;;;;;8.85;63.20;99304.59;6293908;27;97654;-70
2022/12/04 10:52:12;;;;;;;;;39.20;32.40;;;;;9.07;63.00;99313.41;6287106;27;97029;-68
2022/12/04 10:55:27;;;;;;;;;31.25;30.00;;;;;9.15;62.79;99307.81;6283341;27;97427;-70
2022/12/04 10:58:30;;;;;;;;;40.00;34.00;;;;;9.33;62.64;99313.50;6285582;27;96660;-69
2022/12/04 11:01:35;;;;;;;;;38.00;32.00;;;;;9.25;62.00;99304.75;6279515;27;96434;-69
2022/12/04 11:04:40;;;;;;;;;37.60;33.00;;;;;9.24;62.15;99309.28;6276868;27;97646;-69
2022/12/04 11:07:48;;;;;;;;;39.60;34.60;;;;;9.23;62.11;99310.34;6284728;27;96813;-69
2022/12/04 11:11:04;;;;;;;;;39.60;34.60;;;;;9.20;62.15;99299.97;6283956;27;97560;-69
2022/12/04 11:14:14;;;;;;;;;38.20;33.80;;;;;9.27;62.28;99302.69;6279862;27;96445;-69
2022/12/04 11:17:19;;;;;;;;;33.00;31.00;;;;;9.34;62.19;99293.59;6278160;27;97794;-69
2022/12/04 11:20:27;;;;;;;;;28.75;26.75;;;;;9.29;61.94;99289.84;6286979;27;96631;-68
2022/12/04 11:23:34;;;;;;;;;40.50;34.50;;;;;9.39;61.90;99301.06;6286319;27;98294;-69
2022/12/04 11:26:42;;;;;;;;;34.60;32.00;;;;;9.34;61.85;99288.22;6288948;27;96754;-69
2022/12/04 11:29:47;;;;;;;;;36.00;31.75;;;;;9.30;62.03;99292.34;6286723;27;96747;-69
2022/12/04 11:32:52;;;;;;;;;38.25;32.00;;;;;9.62;61.72;99287.25;6292815;27;96509;-69
2022/12/04 11:36:00;;;;;;;;;34.60;31.60;;;;;9.90;60.84;99296.78;6286015;27;96470;-67
2022/12/04 11:39:07;;;;;;;;;35.00;31.50;;;;;10.40;60.31;99298.00;6287583;27;96577;-73
2022/12/04 11:42:18;;;;;;;;;37.50;33.00;;;;;10.71;59.35;99281.09;6285385;27;96454;-70
2022/12/04 11:45:23;;;;;;;;;35.75;31.75;;;;;11.26;57.63;99290.41;6288958;27;96631;-68
2022/12/04 11:48:29;;;;;;;;;41.00;35.00;;;;;11.81;55.00;99295.25;6286633;27;96602;-69
2022/12/04 11:51:53;;;;;;;;;35.00;32.40;;;;;12.59;53.76;99283.72;6286089;27;98571;-68
2022/12/04 11:55:02;;;;;;;;;36.00;33.00;;;;;13.16;51.06;99283.47;6280922;27;97065;-69
2022/12/04 11:58:23;;;;;;;;;34.75;32.00;;;;;14.08;49.67;99285.59;6279032;27;96223;-69
2022/12/04 12:01:38;;;;;;;;;23.60;22.00;;;;;14.81;47.31;99278.88;6276574;27;96256;-70
2022/12/04 12:05:10;;;;;;;;;23.60;22.00;;;;;16.02;44.42;99281.19;6276608;27;96936;-68
2022/12/04 12:08:29;;;;;;;;;21.20;20.00;;;;;16.78;43.63;99283.13;6285899;27;96702;-70
2022/12/04 12:11:36;;;;;;;;;23.60;23.00;;;;;17.76;40.94;99275.81;6290048;27;96332;-69
2022/12/04 12:14:48;;;;;;;;;21.40;19.40;;;;;18.47;38.32;99282.63;6287722;27;97016;-70
2022/12/04 12:18:11;;;;;;;;;21.00;19.20;;;;;19.41;37.27;99274.34;6288180;27;96842;-69
2022/12/04 12:21:21;;;;;;;;;22.25;19.25;;;;;20.06;36.20;99269.25;6287926;27;96376;-70
2022/12/04 12:24:30;;;;;;;;;24.00;20.60;;;;;20.35;34.36;99275.84;6286345;27;96897;-69
2022/12/04 12:27:54;;;;;;;;;21.00;20.60;;;;;20.82;33.51;99283.69;6285074;27;97024;-69
2022/12/04 12:31:13;;;;;;;;;18.80;17.80;;;;;20.86;32.72;99270.25;6276433;27;96692;-69
2022/12/04 12:34:25;;;;;;;;;24.00;22.40;;;;;20.71;33.62;99271.94;6284518;27;97267;-68
2022/12/04 12:37:36;;;;;;;;;21.00;19.20;;;;;20.27;33.81;99255.31;6286520;27;96968;-69
2022/12/04 12:40:44;;;;;;;;;23.00;20.00;;;;;19.90;34.75;99263.78;6284961;27;96421;-70
2022/12/04 12:43:58;;;;;;;;;29.00;26.00;;;;;19.69;35.17;99261.31;6274254;27;99076;-69
2022/12/04 12:47:09;;;;;;;;;24.40;23.40;;;;;19.42;34.88;99245.09;6282160;27;97051;-69
2022/12/04 12:50:18;;;;;;;;;26.00;23.00;;;;;19.13;35.66;99252.97;6293648;27;96555;-69
2022/12/04 12:53:25;;;;;;;;;23.25;19.25;;;;;18.77;36.08;99248.44;6287369;27;97202;-68
2022/12/04 12:56:38;;;;;;;;;33.00;30.00;;;;;18.54;36.57;99252.41;6278758;27;96791;-69
2022/12/04 12:59:51;;;;;;;;;29.00;27.00;;;;;18.07;37.48;99249.63;6271115;27;98105;-68
2022/12/04 13:03:01;;;;;;;;;34.00;31.00;;;;;17.82;37.88;99250.25;6285219;27;96526;-69
2022/12/04 13:06:09;;;;;;;;;33.50;30.00;;;;;17.65;38.28;99249.53;6274683;27;96667;-70
2022/12/04 13:09:18;;;;;;;;;29.00;25.50;;;;;17.56;38.65;99251.88;6277589;27;97174;-70
2022/12/04 13:12:24;;;;;;;;;28.00;26.00;;;;;17.36;39.14;99257.13;6273061;27;99614;-69
2022/12/04 13:15:35;;;;;;;;;26.20;23.00;;;;;17.22;39.18;99253.97;6282126;27;96812;-69
2022/12/04 13:18:43;;;;;;;;;37.60;33.20;;;;;16.92;39.52;99260.97;6263573;27;96323;-70
2022/12/04 13:21:56;;;;;;;;;26.00;23.75;;;;;16.63;40.21;99254.88;6267811;27;96500;-69
2022/12/04 13:25:10;;;;;;;;;25.40;25.00;;;;;16.35;40.49;99247.66;6287695;27;97004;-69
2022/12/04 13:28:30;;;;;;;;;39.80;33.00;;;;;16.07;41.06;99247.78;6283093;27;97593;-70
2022/12/04 13:31:42;;;;;;;;;42.00;35.25;;;;;15.78;41.66;99249.78;6282773;27;96227;-70
2022/12/04 13:35:01;;;;;;;;;34.00;30.80;;;;;15.43;42.13;99258.09;6287573;27;96675;-69
2022/12/04 13:38:18;;;;;;;;;36.60;31.40;;;;;15.09;43.28;99259.91;6282548;27;97013;-69
2022/12/04 13:41:25;;;;;;;;;31.00;30.00;;;;;14.78;43.53;99263.88;6285294;27;96992;-69
2022/12/04 13:44:31;;;;;;;;;33.75;30.00;;;;;14.40;44.26;99264.41;6284425;27;96349;-67
2022/12/04 13:47:35;;;;;;;;;32.40;30.00;;;;;14.01;44.73;99265.91;6282979;27;96701;-69
2022/12/04 13:50:40;;;;;;;;;33.40;30.00;;;;;13.60;45.66;99268.66;6282252;27;96606;-69
2022/12/04 13:53:44;;;;;;;;;33.75;30.75;;;;;13.21;46.42;99275.47;6282543;27;97190;-69
2022/12/04 13:56:50;;;;;;;;;34.20;31.40;;;;;12.91;47.02;99265.44;6287704;27;96495;-69
2022/12/04 14:00:06;;;;;;;;;38.40;34.40;;;;;12.64;47.51;99264.09;6277446;27;96512;-70
2022/12/04 14:03:25;;;;;;;;;31.60;29.60;;;;;12.22;48.76;99254.97;6288757;27;96856;-69
2022/12/04 14:06:34;;;;;;;;;36.00;32.00;;;;;11.98;49.14;99245.84;6290404;27;96925;-68
2022/12/04 14:09:41;;;;;;;;;35.40;32.00;;;;;11.72;50.05;99243.38;6274150;27;96343;-69
2022/12/04 14:12:57;;;;;;;;;28.00;27.00;;;;;11.43;50.93;99266.44;6282900;27;99197;-68
2022/12/04 14:16:09;;;;;;;;;39.00;32.80;;;;;11.21;51.71;99262.41;6286007;27;96403;-69
2022/12/04 14:19:27;;;;;;;;;36.00;33.00;;;;;10.93;52.64;99259.22;6284666;27;96626;-68
2022/12/04 14:22:41;;;;;;;;;42.80;36.00;;;;;10.88;52.75;99261.75;6283312;27;96395;-70
2022/12/04 14:25:44;;;;;;;;;35.50;32.00;;;;;10.71;53.39;99254.13;6284072;27;96424;-69
2022/12/04 14:28:48;;;;;;;;;36.60;32.00;;;;;10.54;53.80;99254.81;6285027;27;98150;-69
2022/12/04 14:31:55;;;;;;;;;40.50;34.25;;;;;10.17;55.08;99250.97;6284715;27;96599;-69
2022/12/04 14:34:58;;;;;;;;;36.00;32.00;;;;;10.10;55.68;99245.59;6283242;27;97321;-69
2022/12/04 14:38:06;;;;;;;;;40.80;34.20;;;;;9.76;56.57;99256.59;6284761;27;96614;-68
2022/12/04 14:41:09;;;;;;;;;33.00;31.00;;;;;9.74;56.14;99266.72;6284187;27;97457;-69